createdAt,value
2019-06-04T00:00:32.352Z,0.00
2019-06-04T00:01:32.359Z,0.00
2019-06-04T00:02:32.360Z,0.00
2019-06-04T00:03:32.357Z,0.00
2019-06-04T00:04:32.360Z,0.00
2019-06-04T00:05:32.359Z,0.00
2019-06-04T00:06:32.363Z,0.00
2019-06-04T00:07:32.362Z,0.00
2019-06-04T00:08:32.362Z,0.00
2019-06-04T00:09:32.382Z,0.00
2019-06-04T00:10:32.368Z,0.00
2019-06-04T00:11:32.367Z,0.00
2019-06-04T00:12:32.372Z,0.00
2019-06-04T00:13:32.369Z,0.00
2019-06-04T00:14:32.372Z,0.00
2019-06-04T00:15:32.375Z,0.00
2019-06-04T00:16:32.373Z,0.00
2019-06-04T00:17:32.375Z,0.00
2019-06-04T00:18:32.375Z,0.00
2019-06-04T00:19:32.380Z,0.00
2019-06-04T00:20:32.379Z,0.00
2019-06-04T00:21:32.383Z,0.00
2019-06-04T00:22:32.383Z,0.00
2019-06-04T00:23:32.382Z,0.00
2019-06-04T00:24:32.382Z,0.00
2019-06-04T00:25:32.418Z,0.00
2019-06-04T00:26:32.388Z,0.00
2019-06-04T00:27:32.388Z,0.00
2019-06-04T00:28:32.391Z,0.00
2019-06-04T00:29:32.398Z,0.00
2019-06-04T00:30:32.389Z,0.00
2019-06-04T00:31:35.239Z,0.00
2019-06-04T00:32:32.396Z,0.00
2019-06-04T00:33:32.393Z,0.00
2019-06-04T00:34:32.394Z,0.00
2019-06-04T00:35:32.399Z,0.00
2019-06-04T00:36:32.399Z,0.00
2019-06-04T00:37:32.400Z,0.00
2019-06-04T00:38:32.404Z,0.00
2019-06-04T00:39:32.410Z,0.00
2019-06-04T00:40:32.409Z,0.00
2019-06-04T00:41:32.410Z,0.00
2019-06-04T00:42:32.407Z,0.00
2019-06-04T00:43:32.407Z,0.00
2019-06-04T00:44:32.414Z,0.00
2019-06-04T00:45:32.417Z,0.00
2019-06-04T00:46:32.412Z,0.00
2019-06-04T00:47:32.419Z,0.00
2019-06-04T00:48:32.412Z,0.00
2019-06-04T00:49:32.421Z,0.00
2019-06-04T00:50:32.416Z,0.00
2019-06-04T00:51:32.420Z,0.00
2019-06-04T00:52:32.420Z,0.00
2019-06-04T00:53:32.421Z,0.00
2019-06-04T00:54:32.420Z,0.00
2019-06-04T00:55:32.423Z,0.00
2019-06-04T00:56:32.431Z,0.00
2019-06-04T00:57:32.465Z,0.00
2019-06-04T00:58:32.426Z,0.00
2019-06-04T00:59:32.425Z,0.00
2019-06-04T01:00:32.433Z,0.00
2019-06-04T01:01:32.438Z,0.00
2019-06-04T01:02:32.436Z,0.00
2019-06-04T01:03:32.448Z,0.00
2019-06-04T01:04:32.442Z,0.00
2019-06-04T01:05:32.436Z,0.00
2019-06-04T01:06:32.434Z,0.00
2019-06-04T01:07:32.436Z,0.00
2019-06-04T01:08:32.434Z,0.00
2019-06-04T01:09:32.446Z,0.00
2019-06-04T01:10:32.450Z,0.00
2019-06-04T01:11:32.438Z,0.00
2019-06-04T01:12:32.441Z,0.00
2019-06-04T01:13:32.440Z,0.00
2019-06-04T01:14:32.443Z,0.00
2019-06-04T01:15:32.442Z,0.00
2019-06-04T01:16:32.445Z,0.00
2019-06-04T01:17:32.449Z,0.00
2019-06-04T01:18:32.451Z,0.00
2019-06-04T01:19:32.452Z,0.00
2019-06-04T01:20:32.459Z,0.00
2019-06-04T01:21:32.452Z,0.00
2019-06-04T01:22:32.452Z,0.00
2019-06-04T01:23:32.452Z,0.00
2019-06-04T01:24:32.452Z,0.00
2019-06-04T01:25:32.455Z,0.00
2019-06-04T01:26:32.461Z,0.00
2019-06-04T01:27:32.457Z,0.00
2019-06-04T01:28:32.460Z,0.00
2019-06-04T01:29:32.464Z,0.00
2019-06-04T01:30:32.460Z,0.00
2019-06-04T01:31:32.467Z,0.00
2019-06-04T01:32:32.463Z,0.00
2019-06-04T01:33:40.050Z,0.00
2019-06-04T01:34:32.475Z,0.00
2019-06-04T01:35:32.458Z,0.00
2019-06-04T01:36:32.474Z,0.00
2019-06-04T01:37:32.469Z,0.00
2019-06-04T01:38:32.470Z,0.00
2019-06-04T01:39:32.469Z,0.00
2019-06-04T01:40:32.470Z,0.00
2019-06-04T01:41:32.471Z,0.00
2019-06-04T01:42:32.470Z,0.00
2019-06-04T01:43:32.473Z,0.00
2019-06-04T01:44:32.472Z,0.00
2019-06-04T01:45:32.474Z,0.00
2019-06-04T01:46:32.472Z,0.00
2019-06-04T01:47:32.472Z,0.00
2019-06-04T01:48:32.473Z,0.00
2019-06-04T01:49:32.481Z,0.00
2019-06-04T01:50:32.476Z,0.00
2019-06-04T01:51:32.478Z,0.00
2019-06-04T01:52:32.478Z,0.00
2019-06-04T01:53:32.486Z,0.00
2019-06-04T01:54:32.485Z,0.00
2019-06-04T01:55:32.481Z,0.00
2019-06-04T01:56:32.483Z,0.00
2019-06-04T01:57:32.486Z,0.00
2019-06-04T01:58:32.484Z,0.00
2019-06-04T01:59:32.487Z,0.00
2019-06-04T02:00:32.489Z,0.00
2019-06-04T02:01:32.487Z,0.00
2019-06-04T02:02:34.043Z,0.00
2019-06-04T02:03:32.490Z,0.00
2019-06-04T02:04:32.493Z,0.00
2019-06-04T02:05:32.493Z,4.00
2019-06-04T02:06:32.493Z,4.00
2019-06-04T02:07:32.493Z,0.00
2019-06-04T02:08:32.495Z,0.00
2019-06-04T02:09:32.493Z,0.00
2019-06-04T02:10:32.500Z,0.00
2019-06-04T02:11:32.497Z,0.00
2019-06-04T02:12:32.499Z,4.00
2019-06-04T02:13:32.497Z,4.00
2019-06-04T02:14:32.500Z,0.00
2019-06-04T02:15:32.497Z,4.00
2019-06-04T02:16:32.502Z,0.00
2019-06-04T02:17:32.499Z,4.00
2019-06-04T02:18:32.501Z,4.00
2019-06-04T02:19:32.503Z,4.00
2019-06-04T02:20:32.511Z,8.00
2019-06-04T02:21:32.507Z,8.00
2019-06-04T02:22:32.504Z,8.00
2019-06-04T02:23:32.506Z,8.00
2019-06-04T02:24:32.513Z,8.00
2019-06-04T02:25:32.513Z,8.00
2019-06-04T02:26:32.505Z,12.00
2019-06-04T02:27:32.519Z,8.00
2019-06-04T02:28:32.515Z,12.00
2019-06-04T02:29:32.512Z,16.00
2019-06-04T02:30:32.512Z,16.00
2019-06-04T02:31:32.515Z,16.00
2019-06-04T02:33:00.891Z,20.00
2019-06-04T02:33:34.910Z,20.00
2019-06-04T02:34:32.513Z,20.00
2019-06-04T02:35:32.513Z,24.00
2019-06-04T02:36:32.528Z,28.00
2019-06-04T02:37:32.518Z,32.00
2019-06-04T02:38:32.524Z,36.00
2019-06-04T02:39:32.515Z,40.00
2019-06-04T02:40:32.521Z,44.00
2019-06-04T02:41:32.521Z,48.00
2019-06-04T02:42:32.524Z,56.00
2019-06-04T02:43:32.522Z,56.00
2019-06-04T02:44:32.524Z,60.00
2019-06-04T02:45:32.525Z,64.00
2019-06-04T02:46:32.529Z,68.00
2019-06-04T02:47:32.524Z,72.00
2019-06-04T02:48:32.528Z,72.00
2019-06-04T02:49:32.526Z,76.00
2019-06-04T02:50:32.531Z,80.00
2019-06-04T02:51:32.526Z,84.00
2019-06-04T02:52:32.528Z,92.00
2019-06-04T02:53:32.536Z,96.00
2019-06-04T02:54:32.532Z,104.00
2019-06-04T02:55:32.536Z,112.00
2019-06-04T02:56:32.532Z,116.00
2019-06-04T02:57:32.535Z,128.00
2019-06-04T02:58:32.541Z,140.00
2019-06-04T02:59:32.536Z,148.00
2019-06-04T03:00:32.536Z,156.00
2019-06-04T03:01:32.535Z,168.00
2019-06-04T03:02:32.546Z,180.00
2019-06-04T03:03:32.542Z,188.00
2019-06-04T03:04:32.537Z,200.00
2019-06-04T03:05:32.537Z,208.00
2019-06-04T03:06:32.538Z,216.00
2019-06-04T03:07:32.545Z,228.00
2019-06-04T03:08:32.549Z,240.00
2019-06-04T03:09:32.545Z,252.00
2019-06-04T03:10:36.619Z,268.00
2019-06-04T03:11:32.561Z,284.00
2019-06-04T03:12:32.573Z,308.00
2019-06-04T03:13:32.546Z,332.00
2019-06-04T03:14:32.551Z,348.00
2019-06-04T03:15:32.550Z,360.00
2019-06-04T03:16:32.553Z,380.00
2019-06-04T03:17:32.560Z,396.00
2019-06-04T03:18:32.551Z,416.00
2019-06-04T03:19:32.558Z,432.00
2019-06-04T03:20:32.553Z,444.00
2019-06-04T03:21:32.556Z,464.00
2019-06-04T03:22:32.561Z,476.00
2019-06-04T03:23:32.558Z,488.00
2019-06-04T03:24:32.556Z,496.00
2019-06-04T03:25:32.560Z,504.00
2019-06-04T03:26:32.562Z,516.00
2019-06-04T03:27:32.562Z,536.00
2019-06-04T03:28:32.558Z,552.00
2019-06-04T03:29:32.566Z,568.00
2019-06-04T03:30:32.571Z,576.00
2019-06-04T03:31:32.563Z,596.00
2019-06-04T03:32:32.567Z,608.00
2019-06-04T03:33:55.078Z,632.00
2019-06-04T03:34:32.567Z,656.00
2019-06-04T03:35:32.568Z,672.00
2019-06-04T03:36:32.572Z,688.00
2019-06-04T03:37:32.569Z,704.00
2019-06-04T03:38:32.570Z,724.00
2019-06-04T03:39:32.578Z,740.00
2019-06-04T03:40:32.570Z,752.00
2019-06-04T03:41:32.574Z,768.00
2019-06-04T03:42:32.587Z,776.00
2019-06-04T03:43:32.575Z,788.00
2019-06-04T03:44:32.574Z,796.00
2019-06-04T03:45:32.580Z,800.00
2019-06-04T03:46:32.580Z,816.00
2019-06-04T03:47:32.584Z,824.00
2019-06-04T03:48:32.580Z,832.00
2019-06-04T03:49:32.580Z,840.00
2019-06-04T03:50:32.584Z,856.00
2019-06-04T03:51:32.583Z,884.00
2019-06-04T03:52:32.585Z,908.00
2019-06-04T03:53:32.586Z,940.00
2019-06-04T03:54:32.588Z,964.00
2019-06-04T03:55:32.586Z,984.00
2019-06-04T03:56:32.588Z,1008.00
2019-06-04T03:57:32.590Z,1028.00
2019-06-04T03:58:32.623Z,1052.00
2019-06-04T03:59:32.611Z,1076.00
2019-06-04T04:00:32.591Z,1112.00
2019-06-04T04:01:32.593Z,1148.00
2019-06-04T04:02:32.607Z,1188.00
2019-06-04T04:03:32.596Z,1228.00
2019-06-04T04:04:32.594Z,1260.00
2019-06-04T04:05:32.607Z,1280.00
2019-06-04T04:06:32.598Z,1296.00
2019-06-04T04:07:32.595Z,1300.00
2019-06-04T04:08:32.604Z,1324.00
2019-06-04T04:09:32.604Z,1336.00
2019-06-04T04:10:32.613Z,1340.00
2019-06-04T04:11:32.632Z,1364.00
2019-06-04T04:12:32.607Z,1380.00
2019-06-04T04:13:32.605Z,1404.00
2019-06-04T04:14:32.607Z,1440.00
2019-06-04T04:15:32.614Z,1464.00
2019-06-04T04:16:32.609Z,1472.00
2019-06-04T04:17:32.612Z,1488.00
2019-06-04T04:18:32.611Z,1516.00
2019-06-04T04:19:32.616Z,1536.00
2019-06-04T04:20:32.611Z,1564.00
2019-06-04T04:21:32.613Z,1584.00
2019-06-04T04:22:32.620Z,1616.00
2019-06-04T04:23:32.633Z,1660.00
2019-06-04T04:24:32.621Z,1704.00
2019-06-04T04:25:32.623Z,1720.00
2019-06-04T04:26:32.621Z,1744.00
2019-06-04T04:27:32.627Z,1756.00
2019-06-04T04:28:32.621Z,1808.00
2019-06-04T04:29:32.637Z,1848.00
2019-06-04T04:30:32.627Z,1888.00
2019-06-04T04:31:35.768Z,1920.00
2019-06-04T04:32:32.629Z,1972.00
2019-06-04T04:33:32.631Z,2000.00
2019-06-04T04:34:36.630Z,2016.00
2019-06-04T04:35:32.637Z,2024.00
2019-06-04T04:36:32.637Z,2028.00
2019-06-04T04:37:32.637Z,2020.00
2019-06-04T04:38:32.633Z,2016.00
2019-06-04T04:39:32.639Z,2020.00
2019-06-04T04:40:32.659Z,1996.00
2019-06-04T04:41:32.638Z,1956.00
2019-06-04T04:42:32.643Z,1896.00
2019-06-04T04:43:32.641Z,1804.00
2019-06-04T04:44:32.676Z,1732.00
2019-06-04T04:45:32.652Z,1688.00
2019-06-04T04:46:32.699Z,1692.00
2019-06-04T04:47:32.645Z,1696.00
2019-06-04T04:48:32.649Z,1708.00
2019-06-04T04:49:34.497Z,1732.00
2019-06-04T04:50:32.652Z,1760.00
2019-06-04T04:51:32.650Z,1796.00
2019-06-04T04:52:32.653Z,1848.00
2019-06-04T04:53:32.656Z,1872.00
2019-06-04T04:54:32.659Z,1920.00
2019-06-04T04:55:32.660Z,1960.00
2019-06-04T04:56:36.259Z,2020.00
2019-06-04T04:57:32.662Z,2108.00
2019-06-04T04:58:32.661Z,2212.00
2019-06-04T04:59:32.669Z,2320.00
2019-06-04T05:00:32.664Z,2420.00
2019-06-04T05:01:32.672Z,2540.00
2019-06-04T05:02:32.671Z,2708.00
2019-06-04T05:03:32.666Z,2920.00
2019-06-04T05:04:47.937Z,3160.00
2019-06-04T05:05:32.672Z,3408.00
2019-06-04T05:06:32.670Z,3644.00
2019-06-04T05:07:32.669Z,3820.00
2019-06-04T05:08:32.670Z,3928.00
2019-06-04T05:09:32.676Z,3952.00
2019-06-04T05:10:32.676Z,3952.00
2019-06-04T05:11:32.677Z,3940.00
2019-06-04T05:12:32.680Z,3944.00
2019-06-04T05:13:32.685Z,3948.00
2019-06-04T05:14:32.684Z,3968.00
2019-06-04T05:15:32.692Z,4012.00
2019-06-04T05:16:32.686Z,3996.00
2019-06-04T05:17:32.682Z,3884.00
2019-06-04T05:18:32.709Z,3756.00
2019-06-04T05:19:32.687Z,3604.00
2019-06-04T05:20:32.691Z,3468.00
2019-06-04T05:21:34.159Z,3300.00
2019-06-04T05:22:32.692Z,3144.00
2019-06-04T05:23:32.692Z,3060.00
2019-06-04T05:24:32.698Z,3024.00
2019-06-04T05:25:32.701Z,3048.00
2019-06-04T05:26:32.899Z,3116.00
2019-06-04T05:27:32.702Z,3236.00
2019-06-04T05:28:32.707Z,3300.00
2019-06-04T05:29:32.706Z,3316.00
2019-06-04T05:30:36.402Z,3264.00
2019-06-04T05:31:32.713Z,3236.00
2019-06-04T05:32:32.715Z,3176.00
2019-06-04T05:33:32.758Z,3076.00
2019-06-04T05:34:32.758Z,2968.00
2019-06-04T05:35:32.717Z,2884.00
2019-06-04T05:36:32.761Z,2840.00
2019-06-04T05:37:33.359Z,2820.00
2019-06-04T05:38:32.972Z,2832.00
2019-06-04T05:39:32.721Z,2872.00
2019-06-04T05:40:33.138Z,2884.00
2019-06-04T05:41:32.767Z,2852.00
2019-06-04T05:42:32.921Z,2860.00
2019-06-04T05:43:32.987Z,2856.00
2019-06-04T05:44:32.786Z,2856.00
2019-06-04T05:45:33.062Z,2864.00
2019-06-04T05:46:33.330Z,2900.00
2019-06-04T05:47:32.914Z,2876.00
2019-06-04T05:48:33.350Z,2924.00
2019-06-04T05:49:32.858Z,2932.00
2019-06-04T05:50:33.171Z,2940.00
2019-06-04T05:51:33.315Z,2948.00
2019-06-04T05:52:33.185Z,2976.00
2019-06-04T05:53:33.261Z,2992.00
2019-06-04T05:54:33.029Z,3024.00
2019-06-04T05:55:33.123Z,3052.00
2019-06-04T05:56:33.368Z,3072.00
2019-06-04T05:57:33.762Z,3096.00
2019-06-04T05:58:33.194Z,3124.00
2019-06-04T05:59:33.340Z,3160.00
2019-06-04T06:00:33.384Z,3204.00
2019-06-04T06:01:35.932Z,3240.00
2019-06-04T06:02:33.315Z,3272.00
2019-06-04T06:03:33.954Z,3300.00
2019-06-04T06:04:33.308Z,3324.00
2019-06-04T06:05:40.241Z,3352.00
2019-06-04T06:06:33.302Z,3368.00
2019-06-04T06:07:34.045Z,3396.00
2019-06-04T06:08:34.020Z,3416.00
2019-06-04T06:09:32.781Z,3440.00
2019-06-04T06:10:34.097Z,3468.00
2019-06-04T06:11:33.976Z,3488.00
2019-06-04T06:12:33.950Z,3512.00
2019-06-04T06:13:32.776Z,3532.00
2019-06-04T06:14:34.168Z,3556.00
2019-06-04T06:15:32.789Z,3580.00
2019-06-04T06:16:33.044Z,3608.00
2019-06-04T06:17:34.115Z,3636.00
2019-06-04T06:18:34.129Z,3672.00
2019-06-04T06:19:34.021Z,3708.00
2019-06-04T06:20:32.793Z,3736.00
2019-06-04T06:21:33.225Z,3768.00
2019-06-04T06:22:32.799Z,3792.00
2019-06-04T06:23:32.806Z,3816.00
2019-06-04T06:24:33.142Z,3844.00
2019-06-04T06:25:38.178Z,3868.00
2019-06-04T06:26:33.208Z,3892.00
2019-06-04T06:27:32.803Z,3916.00
2019-06-04T06:28:32.814Z,3940.00
2019-06-04T06:29:32.813Z,3972.00
2019-06-04T06:30:32.897Z,4000.00
2019-06-04T06:31:32.915Z,4024.00
2019-06-04T06:32:32.934Z,4044.00
2019-06-04T06:33:35.635Z,4064.00
2019-06-04T06:34:37.024Z,4084.00
2019-06-04T06:35:46.676Z,4112.00
2019-06-04T06:36:33.009Z,4136.00
2019-06-04T06:37:33.413Z,4164.00
2019-06-04T06:38:52.751Z,4192.00
2019-06-04T06:39:33.314Z,4220.00
2019-06-04T06:40:33.475Z,4236.00
2019-06-04T06:41:33.656Z,4260.00
2019-06-04T06:42:33.545Z,4296.00
2019-06-04T06:43:33.959Z,4320.00
2019-06-04T06:44:33.678Z,4348.00
2019-06-04T06:45:34.288Z,4376.00
2019-06-04T06:46:34.992Z,4400.00
2019-06-04T06:47:33.178Z,4420.00
2019-06-04T06:48:33.005Z,4452.00
2019-06-04T06:49:37.949Z,4488.00
2019-06-04T06:50:33.199Z,4540.00
2019-06-04T06:51:33.285Z,4572.00
2019-06-04T06:52:33.269Z,4588.00
2019-06-04T06:53:34.323Z,4588.00
2019-06-04T06:54:36.354Z,4596.00
2019-06-04T06:55:34.580Z,4620.00
2019-06-04T06:56:34.389Z,4640.00
2019-06-04T06:57:34.340Z,4628.00
2019-06-04T06:58:35.525Z,4652.00
2019-06-04T06:59:32.871Z,4708.00
2019-06-04T07:00:33.683Z,4800.00
2019-06-04T07:01:32.884Z,4836.00
2019-06-04T07:02:34.189Z,4864.00
2019-06-04T07:03:33.231Z,4892.00
2019-06-04T07:04:33.918Z,4952.00
2019-06-04T07:05:33.059Z,5000.00
2019-06-04T07:06:33.999Z,5064.00
2019-06-04T07:07:33.186Z,5124.00
2019-06-04T07:08:34.315Z,5188.00
2019-06-04T07:09:33.296Z,5268.00
2019-06-04T07:10:32.905Z,5344.00
2019-06-04T07:11:32.903Z,5432.00
2019-06-04T07:12:32.908Z,5512.00
2019-06-04T07:13:33.291Z,5548.00
2019-06-04T07:14:32.912Z,5508.00
2019-06-04T07:15:34.609Z,5476.00
2019-06-04T07:16:33.081Z,5412.00
2019-06-04T07:17:33.332Z,5336.00
2019-06-04T07:18:33.887Z,5364.00
2019-06-04T07:19:33.433Z,5412.00
2019-06-04T07:20:33.598Z,5472.00
2019-06-04T07:21:33.763Z,5592.00
2019-06-04T07:22:33.578Z,5632.00
2019-06-04T07:23:32.939Z,5640.00
2019-06-04T07:24:33.827Z,5644.00
2019-06-04T07:25:33.820Z,5652.00
2019-06-04T07:26:33.722Z,5684.00
2019-06-04T07:27:33.992Z,5704.00
2019-06-04T07:28:33.375Z,5744.00
2019-06-04T07:29:32.961Z,5792.00
2019-06-04T07:30:34.006Z,5816.00
2019-06-04T07:31:34.019Z,5864.00
2019-06-04T07:32:34.212Z,5896.00
2019-06-04T07:33:33.677Z,5932.00
2019-06-04T07:34:34.482Z,5960.00
2019-06-04T07:35:34.557Z,5996.00
2019-06-04T07:36:34.390Z,6032.00
2019-06-04T07:37:33.203Z,6064.00
2019-06-04T07:38:33.495Z,6116.00
2019-06-04T07:39:32.985Z,6164.00
2019-06-04T07:40:32.987Z,6216.00
2019-06-04T07:41:33.268Z,6268.00
2019-06-04T07:42:32.994Z,6320.00
2019-06-04T07:43:33.049Z,6380.00
2019-06-04T07:44:33.002Z,6416.00
2019-06-04T07:45:33.489Z,6472.00
2019-06-04T07:46:33.155Z,6532.00
2019-06-04T07:47:33.312Z,6576.00
2019-06-04T07:48:37.186Z,6624.00
2019-06-04T07:49:33.214Z,6688.00
2019-06-04T07:50:33.801Z,6732.00
2019-06-04T07:51:33.811Z,6784.00
2019-06-04T07:52:33.673Z,6832.00
2019-06-04T07:53:33.489Z,6888.00
2019-06-04T07:54:33.499Z,6960.00
2019-06-04T07:55:34.281Z,7016.00
2019-06-04T07:56:33.751Z,7084.00
2019-06-04T07:57:34.501Z,7160.00
2019-06-04T07:58:34.018Z,7240.00
2019-06-04T07:59:34.003Z,7356.00
2019-06-04T08:00:34.201Z,7552.00
2019-06-04T08:01:52.660Z,7772.00
2019-06-04T08:02:34.204Z,7984.00
2019-06-04T08:03:34.457Z,9468.00
2019-06-04T08:04:35.034Z,23104.00
2019-06-04T08:05:34.009Z,43328.00
2019-06-04T08:06:50.712Z,62112.00
2019-06-04T08:07:34.313Z,71968.00
2019-06-04T08:08:35.447Z,73920.00
2019-06-04T08:09:33.111Z,72640.00
2019-06-04T08:10:33.114Z,71712.00
2019-06-04T08:11:33.123Z,71328.00
2019-06-04T08:12:33.219Z,73056.00
2019-06-04T08:13:33.390Z,73440.00
2019-06-04T08:14:33.952Z,73408.00
2019-06-04T08:15:33.528Z,73120.00
2019-06-04T08:16:33.612Z,73760.00
2019-06-04T08:17:33.393Z,74016.00
2019-06-04T08:18:33.646Z,70784.00
2019-06-04T08:19:33.841Z,66144.00
2019-06-04T08:20:33.728Z,66560.00
2019-06-04T08:21:45.354Z,71584.00
2019-06-04T08:22:33.625Z,76768.00
2019-06-04T08:23:34.368Z,78592.00
2019-06-04T08:24:33.869Z,80224.00
2019-06-04T08:25:34.562Z,82048.00
2019-06-04T08:26:34.194Z,81568.00
2019-06-04T08:27:34.269Z,79136.00
2019-06-04T08:28:34.252Z,77888.00
2019-06-04T08:29:34.388Z,79520.00
2019-06-04T08:30:34.262Z,79744.00
2019-06-04T08:31:34.490Z,78656.00
2019-06-04T08:32:35.706Z,77248.00
2019-06-04T08:33:34.441Z,78464.00
2019-06-04T08:34:34.524Z,80128.00
2019-06-04T08:35:34.843Z,81088.00
2019-06-04T08:36:34.651Z,79552.00
2019-06-04T08:37:35.126Z,79616.00
2019-06-04T08:38:35.839Z,79328.00
2019-06-04T08:39:35.227Z,80544.00
2019-06-04T08:40:35.213Z,81920.00
2019-06-04T08:41:33.483Z,82176.00
2019-06-04T08:42:33.503Z,84128.00
2019-06-04T08:43:33.519Z,85792.00
2019-06-04T08:44:33.532Z,88096.00
2019-06-04T08:45:33.550Z,88864.00
2019-06-04T08:46:33.563Z,86816.00
2019-06-04T08:47:33.600Z,86848.00
2019-06-04T08:48:33.602Z,86816.00
2019-06-04T08:49:33.619Z,86816.00
2019-06-04T08:50:33.641Z,85184.00
2019-06-04T08:51:33.656Z,77152.00
2019-06-04T08:52:33.679Z,72128.00
2019-06-04T08:53:33.694Z,75872.00
2019-06-04T08:54:33.716Z,84512.00
2019-06-04T08:55:33.731Z,84480.00
2019-06-04T08:56:33.751Z,79424.00
2019-06-04T08:57:33.770Z,76800.00
2019-06-04T08:58:34.062Z,76096.00
2019-06-04T08:59:33.812Z,75488.00
2019-06-04T09:00:33.833Z,75936.00
2019-06-04T09:01:33.850Z,71264.00
2019-06-04T09:02:33.874Z,66560.00
2019-06-04T09:03:33.892Z,65760.00
2019-06-04T09:04:33.912Z,71232.00
2019-06-04T09:05:33.937Z,77568.00
2019-06-04T09:06:33.954Z,80416.00
2019-06-04T09:07:33.974Z,81344.00
2019-06-04T09:08:33.999Z,79392.00
2019-06-04T09:09:34.027Z,84800.00
2019-06-04T09:10:34.040Z,94880.00
2019-06-04T09:11:34.060Z,100608.00
2019-06-04T09:12:34.086Z,101088.00
2019-06-04T09:13:34.112Z,95296.00
2019-06-04T09:14:34.131Z,93088.00
2019-06-04T09:15:34.148Z,88320.00
2019-06-04T09:16:34.174Z,91328.00
2019-06-04T09:17:34.196Z,96864.00
2019-06-04T09:18:34.219Z,98784.00
2019-06-04T09:19:34.248Z,97472.00
2019-06-04T09:20:34.338Z,92896.00
2019-06-04T09:21:34.288Z,86944.00
2019-06-04T09:22:34.316Z,82752.00
2019-06-04T09:23:34.332Z,83648.00
2019-06-04T09:24:34.360Z,85792.00
2019-06-04T09:25:34.370Z,90240.00
2019-06-04T09:26:34.401Z,90176.00
2019-06-04T09:27:34.417Z,91616.00
2019-06-04T09:28:34.449Z,94080.00
2019-06-04T09:29:34.467Z,97504.00
2019-06-04T09:30:34.491Z,101824.00
2019-06-04T09:31:34.516Z,97664.00
2019-06-04T09:32:34.532Z,94016.00
2019-06-04T09:33:34.563Z,86784.00
2019-06-04T09:34:34.588Z,84160.00
2019-06-04T09:35:34.605Z,85632.00
2019-06-04T09:36:34.632Z,90176.00
2019-06-04T09:37:47.114Z,96704.00
2019-06-04T09:38:34.677Z,100768.00
2019-06-04T09:39:34.718Z,99552.00
2019-06-04T09:40:34.735Z,93600.00
2019-06-04T09:41:34.749Z,92192.00
2019-06-04T09:42:34.772Z,93024.00
2019-06-04T09:43:34.799Z,94784.00
2019-06-04T09:44:34.824Z,94464.00
2019-06-04T09:45:34.848Z,91936.00
2019-06-04T09:46:34.885Z,92160.00
2019-06-04T09:47:34.901Z,92544.00
2019-06-04T09:48:34.920Z,96096.00
2019-06-04T09:49:34.943Z,95840.00
2019-06-04T09:50:34.987Z,96672.00
2019-06-04T09:51:34.990Z,97952.00
2019-06-04T09:52:35.018Z,97344.00
2019-06-04T09:53:35.042Z,95648.00
2019-06-04T09:54:35.065Z,93312.00
2019-06-04T09:55:35.092Z,92032.00
2019-06-04T09:56:35.114Z,93088.00
2019-06-04T09:57:35.143Z,95520.00
2019-06-04T09:58:35.164Z,98912.00
2019-06-04T09:59:35.189Z,98464.00
2019-06-04T10:00:35.220Z,96768.00
2019-06-04T10:01:35.242Z,93376.00
2019-06-04T10:02:35.277Z,91200.00
2019-06-04T10:03:35.294Z,93952.00
2019-06-04T10:04:35.324Z,95232.00
2019-06-04T10:05:35.351Z,96192.00
2019-06-04T10:06:39.651Z,92672.00
2019-06-04T10:07:35.396Z,93888.00
2019-06-04T10:08:35.426Z,97824.00
2019-06-04T10:09:35.466Z,104256.00
2019-06-04T10:10:35.480Z,104576.00
2019-06-04T10:11:35.499Z,101248.00
2019-06-04T10:12:35.520Z,96384.00
2019-06-04T10:13:35.553Z,94912.00
2019-06-04T10:14:35.571Z,95040.00
2019-06-04T10:15:35.601Z,94784.00
2019-06-04T10:16:35.627Z,96160.00
2019-06-04T10:17:35.651Z,97984.00
2019-06-04T10:18:35.677Z,99040.00
2019-06-04T10:19:35.699Z,99488.00
2019-06-04T10:20:35.727Z,97472.00
2019-06-04T10:21:35.755Z,93344.00
2019-06-04T10:22:35.779Z,91936.00
2019-06-04T10:23:35.803Z,93408.00
2019-06-04T10:24:35.834Z,97152.00
2019-06-04T10:25:35.966Z,102528.00
2019-06-04T10:26:35.883Z,103328.00
2019-06-04T10:27:35.908Z,100352.00
2019-06-04T10:28:35.933Z,95328.00
2019-06-04T10:29:35.958Z,96448.00
2019-06-04T10:30:35.982Z,95552.00
2019-06-04T10:31:36.021Z,79392.00
2019-06-04T10:32:36.041Z,90240.00
2019-06-04T10:33:36.069Z,94560.00
2019-06-04T10:34:36.093Z,94336.00
2019-06-04T10:35:36.129Z,94016.00
2019-06-04T10:36:36.144Z,95328.00
2019-06-04T10:37:36.177Z,97760.00
2019-06-04T10:38:36.199Z,99456.00
2019-06-04T10:39:36.223Z,98752.00
2019-06-04T10:40:37.371Z,100928.00
2019-06-04T10:41:36.278Z,101472.00
2019-06-04T10:42:36.303Z,99264.00
2019-06-04T10:43:36.333Z,98240.00
2019-06-04T10:44:36.362Z,97664.00
2019-06-04T10:45:36.384Z,95296.00
2019-06-04T10:46:36.421Z,92192.00
2019-06-04T10:47:36.487Z,88128.00
2019-06-04T10:48:36.463Z,83328.00
2019-06-04T10:49:36.491Z,87712.00
2019-06-04T10:50:36.515Z,96320.00
2019-06-04T10:51:36.546Z,104608.00
2019-06-04T10:52:36.574Z,107392.00
2019-06-04T10:53:36.597Z,102784.00
2019-06-04T10:54:36.631Z,95904.00
2019-06-04T10:55:36.653Z,94720.00
2019-06-04T10:56:36.680Z,95840.00
2019-06-04T10:57:36.705Z,95744.00
2019-06-04T10:58:36.736Z,96256.00
2019-06-04T10:59:36.759Z,93696.00
2019-06-04T11:00:36.790Z,92192.00
2019-06-04T11:01:36.813Z,93440.00
2019-06-04T11:02:36.843Z,96224.00
2019-06-04T11:03:36.867Z,97312.00
2019-06-04T11:04:36.895Z,97024.00
2019-06-04T11:05:36.921Z,96480.00
2019-06-04T11:06:36.945Z,97920.00
2019-06-04T11:07:36.976Z,102176.00
2019-06-04T11:08:49.898Z,107648.00
2019-06-04T11:09:37.031Z,108960.00
2019-06-04T11:10:37.061Z,106272.00
2019-06-04T11:11:37.083Z,100000.00
2019-06-04T11:12:37.115Z,94816.00
2019-06-04T11:13:37.138Z,90464.00
2019-06-04T11:14:37.169Z,91680.00
2019-06-04T11:15:37.192Z,94048.00
2019-06-04T11:16:37.218Z,96448.00
2019-06-04T11:17:37.251Z,94848.00
2019-06-04T11:18:37.274Z,94464.00
2019-06-04T11:19:37.303Z,93760.00
2019-06-04T11:20:37.337Z,100288.00
2019-06-04T11:21:39.661Z,98528.00
2019-06-04T11:22:37.387Z,94208.00
2019-06-04T11:23:37.435Z,89184.00
2019-06-04T11:24:37.440Z,95360.00
2019-06-04T11:25:37.478Z,82304.00
2019-06-04T11:26:37.494Z,106496.00
2019-06-04T11:27:37.523Z,105696.00
2019-06-04T11:28:37.557Z,96160.00
2019-06-04T11:29:37.577Z,6616.00
2019-06-04T11:30:37.610Z,6632.00
2019-06-04T11:31:39.903Z,6648.00
2019-06-04T11:32:37.665Z,6652.00
2019-06-04T11:33:37.686Z,6736.00
2019-06-04T11:34:37.712Z,6728.00
2019-06-04T11:35:37.740Z,6728.00
2019-06-04T11:36:37.763Z,6752.00
2019-06-04T11:37:37.791Z,6732.00
2019-06-04T11:38:37.816Z,6756.00
2019-06-04T11:39:37.842Z,6760.00
2019-06-04T11:40:37.872Z,6776.00
2019-06-04T11:41:37.884Z,6780.00
2019-06-04T11:42:37.913Z,6820.00
2019-06-04T11:43:37.934Z,6832.00
2019-06-04T11:44:37.955Z,6844.00
2019-06-04T11:45:37.979Z,6860.00
2019-06-04T11:46:38.061Z,6888.00
2019-06-04T11:47:38.026Z,6928.00
2019-06-04T11:48:38.041Z,6932.00
2019-06-04T11:49:38.069Z,6956.00
2019-06-04T11:50:38.096Z,6976.00
2019-06-04T11:51:38.115Z,7000.00
2019-06-04T11:52:38.131Z,7148.00
2019-06-04T11:53:38.157Z,7268.00
2019-06-04T11:54:38.171Z,16768.00
2019-06-04T11:55:38.187Z,66624.00
2019-06-04T11:56:38.212Z,93856.00
2019-06-04T11:57:38.231Z,93280.00
2019-06-04T11:58:38.253Z,89920.00
2019-06-04T11:59:38.275Z,84928.00
2019-06-04T12:00:38.285Z,76128.00
2019-06-04T12:01:38.305Z,81184.00
2019-06-04T12:02:38.331Z,84608.00
2019-06-04T12:03:38.344Z,84640.00
2019-06-04T12:04:38.369Z,83744.00
2019-06-04T12:05:38.381Z,62880.00
2019-06-04T12:06:38.403Z,48384.00
2019-06-04T12:07:38.441Z,52800.00
2019-06-04T12:08:38.446Z,68960.00
2019-06-04T12:09:38.511Z,73728.00
2019-06-04T12:10:38.479Z,50752.00
2019-06-04T12:11:38.493Z,17472.00
2019-06-04T12:12:43.946Z,8384.00
2019-06-04T12:13:38.531Z,8136.00
2019-06-04T12:14:38.556Z,8028.00
2019-06-04T12:15:38.574Z,8104.00